Time;durP1;ratioP1;P1;durP2;ratioP2;P2;SDS_P1;SDS_P2;PMS_P1;PMS_P2;Temp;Humidity;BMP_temperature;BMP_pressure;BME280_temperature;BME280_humidity;BME280_pressure;Samples;Min_cycle;Max_cycle;Signal;HPM_P1;HPM_P2
2021/05/25 00:00:21;;;;;;;;;;;10.10;1.00;;;;;;5029881;28;20285;-68
2021/05/25 00:02:47;;;;;;;;;;;10.10;1.00;;;;;;5030640;28;19962;-70
2021/05/25 00:05:18;;;;;;;;;;;10.00;1.00;;;;;;5028284;28;20698;-67
2021/05/25 00:07:43;;;;;;;;;;;10.10;1.00;;;;;;5030557;28;19913;-67
2021/05/25 00:10:09;;;;;;;;;;;10.10;1.00;;;;;;5029697;28;19909;-68
2021/05/25 00:12:35;;;;;;;;;;;10.10;1.00;;;;;;5030643;28;19966;-68
2021/05/25 00:15:02;;;;;;;;;;;10.00;1.00;;;;;;5029544;28;19916;-68
2021/05/25 00:17:27;;;;;;;;;;;10.00;1.00;;;;;;5029869;28;19914;-66
2021/05/25 00:19:53;;;;;;;;;;;10.00;1.00;;;;;;5028736;28;19970;-68
2021/05/25 00:22:18;;;;;;;;;;;9.90;1.00;;;;;;5030296;28;19952;-68
2021/05/25 00:24:44;;;;;;;;;;;9.90;1.00;;;;;;5030922;28;19913;-67
2021/05/25 00:27:09;;;;;;;;;;;9.90;1.00;;;;;;5030161;28;19996;-68
2021/05/25 00:29:35;;;;;;;;;;;10.00;1.00;;;;;;5029690;28;19917;-68
2021/05/25 00:32:01;;;;;;;;;;;9.90;1.00;;;;;;5016892;28;19963;-69
2021/05/25 00:34:26;;;;;;;;;;;10.00;1.00;;;;;;5029176;28;19913;-67
2021/05/25 00:36:52;;;;;;;;;;;9.90;1.00;;;;;;5029101;28;19917;-68
2021/05/25 00:39:17;;;;;;;;;;;10.00;1.00;;;;;;5029525;28;19909;-67
2021/05/25 00:41:43;;;;;;;;;;;9.90;1.00;;;;;;5029877;28;19963;-68
2021/05/25 00:44:09;;;;;;;;;;;9.90;1.00;;;;;;5030035;28;20369;-68
2021/05/25 00:46:35;;;;;;;;;;;;;;;;;;5029539;28;19995;-67
2021/05/25 00:49:01;;;;;;;;;;;9.90;1.00;;;;;;5028051;28;20275;-66
2021/05/25 00:51:27;;;;;;;;;;;9.80;1.00;;;;;;5028474;28;19963;-68
2021/05/25 00:53:52;;;;;;;;;;;9.80;1.00;;;;;;5029599;28;19913;-67
2021/05/25 00:56:18;;;;;;;;;;;9.80;1.00;;;;;;5029746;28;19921;-68
2021/05/25 00:58:44;;;;;;;;;;;9.70;1.00;;;;;;5029740;28;19925;-68
2021/05/25 01:01:09;;;;;;;;;;;9.70;1.00;;;;;;5028884;28;19958;-65
2021/05/25 01:03:35;;;;;;;;;;;9.70;1.00;;;;;;5029001;28;19959;-68
2021/05/25 01:06:00;;;;;;;;;;;9.70;1.00;;;;;;5028713;28;19921;-66
2021/05/25 01:08:26;;;;;;;;;;;9.60;1.00;;;;;;5025792;28;19920;-68
2021/05/25 01:11:01;;;;;;;;;;;9.60;1.00;;;;;;5028307;28;19987;-65
2021/05/25 01:13:28;;;;;;;;;;;9.50;1.00;;;;;;5029429;28;20226;-68
2021/05/25 01:15:53;;;;;;;;;;;9.40;1.00;;;;;;5029041;28;19913;-69
2021/05/25 01:18:19;;;;;;;;;;;9.30;1.00;;;;;;5028640;28;19910;-69
2021/05/25 01:20:46;;;;;;;;;;;9.10;1.00;;;;;;5027832;28;19997;-67
2021/05/25 01:23:11;;;;;;;;;;;9.00;1.00;;;;;;5029631;28;20422;-68
2021/05/25 01:25:42;;;;;;;;;;;8.90;1.00;;;;;;5029048;28;19996;-67
2021/05/25 01:28:10;;;;;;;;;;;8.80;1.00;;;;;;5029646;28;20019;-67
2021/05/25 01:30:36;;;;;;;;;;;8.80;1.00;;;;;;5027830;28;19913;-68
2021/05/25 01:33:02;;;;;;;;;;;8.70;1.00;;;;;;5027544;28;20281;-67
2021/05/25 01:35:29;;;;;;;;;;;8.70;1.00;;;;;;5028125;28;19919;-68
2021/05/25 01:37:55;;;;;;;;;;;8.70;1.00;;;;;;5029049;28;20061;-68
2021/05/25 01:40:21;;;;;;;;;;;8.60;1.00;;;;;;5028279;28;19916;-68
2021/05/25 01:42:47;;;;;;;;;;;8.50;1.00;;;;;;5028908;28;19913;-68
2021/05/25 01:45:18;;;;;;;;;;;8.40;1.00;;;;;;5028611;28;20478;-68
2021/05/25 01:47:44;;;;;;;;;;;8.40;1.00;;;;;;5028500;28;20683;-68
2021/05/25 01:50:11;;;;;;;;;;;8.30;1.00;;;;;;5026965;28;20007;-67
2021/05/25 01:52:58;;;;;;;;;;;8.40;1.00;;;;;;5028732;28;19910;-66
2021/05/25 01:55:28;;;;;;;;;;;8.30;1.00;;;;;;5028761;28;19948;-67
2021/05/25 01:57:55;;;;;;;;;;;8.20;1.00;;;;;;5028599;28;19920;-67
2021/05/25 02:00:21;;;;;;;;;;;8.20;1.00;;;;;;5028140;28;19910;-67
2021/05/25 02:02:46;;;;;;;;;;;8.20;1.00;;;;;;5028451;28;20465;-65
2021/05/25 02:05:12;;;;;;;;;;;8.20;1.00;;;;;;5026699;28;20715;-67
2021/05/25 02:07:37;;;;;;;;;;;8.20;1.00;;;;;;5028884;28;19913;-65
2021/05/25 02:10:03;;;;;;;;;;;8.10;1.00;;;;;;5027528;28;19991;-67
2021/05/25 02:12:29;;;;;;;;;;;8.10;1.00;;;;;;5028360;28;20366;-65
2021/05/25 02:14:54;;;;;;;;;;;8.10;1.00;;;;;;5027784;28;19963;-67
2021/05/25 02:17:20;;;;;;;;;;;8.00;1.00;;;;;;5028518;28;20389;-65
2021/05/25 02:19:45;;;;;;;;;;;8.00;1.00;;;;;;5027413;28;19918;-67
2021/05/25 02:22:11;;;;;;;;;;;8.00;1.00;;;;;;5028828;28;19916;-67
2021/05/25 02:24:36;;;;;;;;;;;7.90;1.00;;;;;;5028755;28;19971;-66
2021/05/25 02:27:02;;;;;;;;;;;7.90;1.00;;;;;;5028039;28;20294;-64
2021/05/25 02:29:28;;;;;;;;;;;7.80;1.00;;;;;;5027989;28;19939;-67
2021/05/25 02:31:53;;;;;;;;;;;7.80;1.00;;;;;;5027694;28;19928;-66
2021/05/25 02:34:19;;;;;;;;;;;7.80;1.00;;;;;;5028427;28;19909;-69
2021/05/25 02:36:44;;;;;;;;;;;7.80;1.00;;;;;;5027390;28;19965;-68
2021/05/25 02:39:10;;;;;;;;;;;7.70;1.00;;;;;;5027920;28;19952;-69
2021/05/25 02:41:35;;;;;;;;;;;7.60;1.00;;;;;;5027760;28;20278;-67
2021/05/25 02:44:01;;;;;;;;;;;7.60;1.00;;;;;;5028702;28;19909;-69
2021/05/25 02:46:26;;;;;;;;;;;7.50;1.00;;;;;;5028243;28;19913;-65
2021/05/25 02:48:52;;;;;;;;;;;7.50;1.00;;;;;;5027407;28;19968;-66
2021/05/25 02:51:17;;;;;;;;;;;7.50;1.00;;;;;;5026794;28;19913;-66
2021/05/25 02:53:43;;;;;;;;;;;7.40;1.00;;;;;;5028276;28;20289;-66
2021/05/25 02:56:09;;;;;;;;;;;7.40;1.00;;;;;;5028083;28;19913;-67
2021/05/25 02:58:34;;;;;;;;;;;7.40;1.00;;;;;;5028067;28;19913;-68
2021/05/25 03:01:00;;;;;;;;;;;7.30;1.00;;;;;;5027052;28;19916;-68
2021/05/25 03:03:25;;;;;;;;;;;7.30;1.00;;;;;;5027231;28;20341;-66
2021/05/25 03:05:51;;;;;;;;;;;7.30;1.00;;;;;;5027204;28;19956;-68
2021/05/25 03:08:17;;;;;;;;;;;7.30;1.00;;;;;;5027767;28;19989;-68
2021/05/25 03:10:44;;;;;;;;;;;7.20;1.00;;;;;;5027083;28;19916;-67
2021/05/25 03:13:10;;;;;;;;;;;7.10;1.00;;;;;;5027559;28;19919;-66
2021/05/25 03:15:37;;;;;;;;;;;7.20;1.00;;;;;;5028361;28;19913;-68
2021/05/25 03:18:02;;;;;;;;;;;7.20;1.00;;;;;;5027475;28;19975;-68
2021/05/25 03:20:28;;;;;;;;;;;7.20;1.00;;;;;;5024855;28;19909;-67
2021/05/25 03:22:54;;;;;;;;;;;7.20;1.00;;;;;;5027716;28;19932;-67
2021/05/25 03:25:20;;;;;;;;;;;7.20;1.00;;;;;;5027388;28;19913;-67
2021/05/25 03:27:46;;;;;;;;;;;7.20;1.00;;;;;;5028059;28;19913;-67
2021/05/25 03:30:13;;;;;;;;;;;7.10;1.00;;;;;;5026622;28;19915;-69
2021/05/25 03:32:39;;;;;;;;;;;7.10;1.00;;;;;;5026994;28;19947;-68
2021/05/25 03:35:06;;;;;;;;;;;7.10;1.00;;;;;;5026096;28;19917;-68
2021/05/25 03:37:32;;;;;;;;;;;7.10;1.00;;;;;;5027446;28;19936;-67
2021/05/25 03:39:57;;;;;;;;;;;7.10;1.00;;;;;;5027656;28;20467;-68
2021/05/25 03:42:23;;;;;;;;;;;7.10;1.00;;;;;;5030892;28;19948;-68
2021/05/25 03:44:48;;;;;;;;;;;7.10;1.00;;;;;;5030943;28;19960;-68
2021/05/25 03:47:14;;;;;;;;;;;7.00;1.00;;;;;;5030509;28;20542;-67
2021/05/25 03:49:39;;;;;;;;;;;7.10;1.00;;;;;;5029771;28;19928;-69
2021/05/25 03:52:05;;;;;;;;;;;7.10;1.00;;;;;;5030196;28;20440;-67
2021/05/25 03:54:40;;;;;;;;;;;7.10;1.00;;;;;;5031402;28;20032;-69
2021/05/25 03:59:31;;;;;;;;;;;7.20;1.00;;;;;;5030704;28;19932;-66
2021/05/25 04:01:57;;;;;;;;;;;7.40;1.00;;;;;;5030183;28;19940;-66
2021/05/25 04:04:22;;;;;;;;;;;7.70;1.00;;;;;;5030350;28;20003;-67
2021/05/25 04:06:48;;;;;;;;;;;7.90;1.00;;;;;;5030373;28;19996;-66
2021/05/25 04:09:13;;;;;;;;;;;7.90;1.00;;;;;;5029473;28;19909;-67
2021/05/25 04:11:39;;;;;;;;;;;8.00;99.90;;;;;;5030520;28;19910;-66
2021/05/25 04:14:05;;;;;;;;;;;8.00;99.90;;;;;;5030904;28;19952;-66
2021/05/25 04:16:30;;;;;;;;;;;7.90;99.90;;;;;;5030378;28;19921;-67
2021/05/25 04:18:56;;;;;;;;;;;7.90;99.90;;;;;;5029094;28;19909;-68
2021/05/25 04:21:21;;;;;;;;;;;8.00;1.00;;;;;;5029169;28;19916;-67
2021/05/25 04:23:47;;;;;;;;;;;8.10;99.90;;;;;;5030510;28;20590;-67
2021/05/25 04:26:12;;;;;;;;;;;8.30;99.90;;;;;;5030577;28;19909;-67
2021/05/25 04:28:38;;;;;;;;;;;8.40;99.90;;;;;;5030729;28;20004;-67
2021/05/25 04:31:04;;;;;;;;;;;8.40;99.90;;;;;;5027788;28;19972;-68
2021/05/25 04:33:29;;;;;;;;;;;8.80;1.00;;;;;;5029102;28;19917;-66
2021/05/25 04:35:55;;;;;;;;;;;9.00;99.90;;;;;;5028210;28;19925;-68
2021/05/25 04:38:20;;;;;;;;;;;9.10;99.90;;;;;;5031585;28;19920;-68
2021/05/25 04:40:47;;;;;;;;;;;9.70;99.90;;;;;;5033878;28;19921;-68
2021/05/25 04:43:13;;;;;;;;;;;10.40;1.00;;;;;;5020151;28;19924;-67
2021/05/25 04:45:39;;;;;;;;;;;11.10;1.00;;;;;;5028963;28;19921;-68
2021/05/25 04:48:05;;;;;;;;;;;12.00;18.10;;;;;;5028666;28;19979;-67
2021/05/25 04:50:31;;;;;;;;;;;12.50;1.00;;;;;;5027695;28;20000;-68
2021/05/25 04:52:56;;;;;;;;;;;13.10;1.00;;;;;;5028670;28;20011;-67
2021/05/25 04:55:22;;;;;;;;;;;13.50;1.00;;;;;;5028957;28;19913;-67
2021/05/25 04:57:48;;;;;;;;;;;13.80;1.00;;;;;;5029145;28;19921;-67
2021/05/25 05:00:15;;;;;;;;;;;14.20;99.90;;;;;;5028703;28;20520;-67
2021/05/25 05:02:41;;;;;;;;;;;14.40;99.90;;;;;;5028979;28;19935;-67
2021/05/25 05:05:07;;;;;;;;;;;14.40;99.90;;;;;;5071213;22;19925;-69
2021/05/25 05:07:33;;;;;;;;;;;14.80;99.90;;;;;;5051036;28;20415;-67
2021/05/25 05:09:58;;;;;;;;;;;14.80;99.90;;;;;;5050320;28;20000;-69
2021/05/25 05:12:25;;;;;;;;;;;15.20;99.90;;;;;;5051746;28;19923;-66
2021/05/25 05:14:51;;;;;;;;;;;15.70;99.90;;;;;;5033613;28;19909;-69
2021/05/25 05:17:17;;;;;;;;;;;16.30;99.90;;;;;;5042633;28;19928;-69
2021/05/25 05:19:43;;;;;;;;;;;17.00;99.90;;;;;;5049750;28;19949;-70
2021/05/25 05:22:09;;;;;;;;;;;17.10;99.90;;;;;;5044081;28;19966;-70
2021/05/25 05:24:35;;;;;;;;;;;17.40;99.90;;;;;;5032713;28;19909;-70
2021/05/25 05:27:00;;;;;;;;;;;17.80;99.90;;;;;;5038704;28;19914;-70
2021/05/25 05:29:26;;;;;;;;;;;18.40;99.90;;;;;;5039216;28;19920;-70
2021/05/25 05:31:51;;;;;;;;;;;18.90;99.90;;;;;;5034295;28;19921;-70
2021/05/25 05:34:17;;;;;;;;;;;19.20;99.90;;;;;;5030086;28;19995;-70
2021/05/25 05:36:42;;;;;;;;;;;19.50;99.90;;;;;;5042451;28;19969;-70
2021/05/25 05:39:08;;;;;;;;;;;20.00;99.90;;;;;;5032330;28;19920;-70
2021/05/25 05:41:33;;;;;;;;;;;20.20;99.90;;;;;;5030258;28;19913;-70
2021/05/25 05:43:59;;;;;;;;;;;20.30;99.90;;;;;;5031160;28;20378;-70
2021/05/25 05:46:24;;;;;;;;;;;20.50;99.90;;;;;;5031077;28;19948;-70
2021/05/25 05:48:50;;;;;;;;;;;20.60;99.90;;;;;;5029677;28;19920;-70
2021/05/25 05:51:16;;;;;;;;;;;20.40;99.90;;;;;;5027118;28;20369;-70
2021/05/25 05:53:41;;;;;;;;;;;20.80;99.90;;;;;;5029499;28;20353;-70
2021/05/25 05:56:07;;;;;;;;;;;21.20;99.90;;;;;;5030119;28;20007;-70
2021/05/25 05:58:32;;;;;;;;;;;21.90;99.90;;;;;;5030337;28;19966;-70
2021/05/25 06:00:58;;;;;;;;;;;21.90;99.90;;;;;;5029371;28;19923;-70
2021/05/25 06:03:23;;;;;;;;;;;22.50;99.90;;;;;;5028757;28;20039;-70
2021/05/25 06:05:49;;;;;;;;;;;22.30;99.90;;;;;;5029077;28;20024;-70
2021/05/25 06:08:15;;;;;;;;;;;21.60;99.90;;;;;;5030557;28;19985;-70
2021/05/25 06:10:44;;;;;;;;;;;20.40;99.90;;;;;;5027515;28;19909;-70
2021/05/25 06:13:09;;;;;;;;;;;19.60;99.90;;;;;;5028957;28;19909;-70
2021/05/25 06:15:36;;;;;;;;;;;19.00;99.90;;;;;;5030429;28;19924;-70
2021/05/25 06:18:02;;;;;;;;;;;18.70;99.90;;;;;;5029479;28;19949;-70
2021/05/25 06:20:27;;;;;;;;;;;18.50;99.90;;;;;;5028134;28;20350;-70
2021/05/25 06:22:53;;;;;;;;;;;18.80;99.90;;;;;;5030250;28;19959;-70
2021/05/25 06:25:19;;;;;;;;;;;19.20;99.90;;;;;;5029505;28;20274;-70
2021/05/25 06:27:44;;;;;;;;;;;19.30;99.90;;;;;;5029904;28;19921;-70
2021/05/25 06:30:10;;;;;;;;;;;20.00;99.90;;;;;;5027070;28;19953;-69
2021/05/25 06:32:36;;;;;;;;;;;21.20;99.90;;;;;;5028359;28;19916;-69
2021/05/25 06:35:03;;;;;;;;;;;23.10;99.90;;;;;;5027162;28;19916;-71
2021/05/25 06:37:28;;;;;;;;;;;24.90;99.90;;;;;;5028748;28;19917;-69
2021/05/25 06:39:54;;;;;;;;;;;26.00;99.90;;;;;;5029309;28;19929;-69
2021/05/25 06:42:19;;;;;;;;;;;25.00;99.90;;;;;;5029095;28;19967;-69
2021/05/25 06:44:45;;;;;;;;;;;22.50;99.90;;;;;;5029335;28;19909;-69
2021/05/25 06:47:10;;;;;;;;;;;21.20;99.90;;;;;;5028224;28;20264;-70
2021/05/25 06:49:36;;;;;;;;;;;19.40;99.90;;;;;;5028640;28;19917;-69
2021/05/25 06:52:01;;;;;;;;;;;18.30;99.90;;;;;;5028180;28;20336;-69
2021/05/25 06:54:28;;;;;;;;;;;17.20;96.40;;;;;;5029636;28;19913;-69
2021/05/25 06:56:54;;;;;;;;;;;16.40;94.80;;;;;;5028893;28;19927;-70
2021/05/25 06:59:20;;;;;;;;;;;16.80;97.00;;;;;;5027726;28;19913;-70
2021/05/25 07:01:45;;;;;;;;;;;17.90;99.90;;;;;;5029076;28;20369;-70
2021/05/25 07:04:11;;;;;;;;;;;20.00;99.90;;;;;;5027759;28;20456;-70
2021/05/25 07:06:36;;;;;;;;;;;21.40;99.90;;;;;;5027648;28;19917;-70
2021/05/25 07:09:03;;;;;;;;;;;21.10;99.90;;;;;;5029344;28;20050;-71
2021/05/25 07:11:28;;;;;;;;;;;20.60;99.90;;;;;;5029593;28;20373;-70
2021/05/25 07:13:54;;;;;;;;;;;19.70;95.10;;;;;;5029342;28;20007;-69
2021/05/25 07:16:19;;;;;;;;;;;19.80;94.90;;;;;;5033133;28;19913;-70
2021/05/25 07:18:45;;;;;;;;;;;20.20;95.10;;;;;;5032696;28;19916;-70
2021/05/25 07:21:10;;;;;;;;;;;21.10;96.40;;;;;;5031412;28;19971;-70
2021/05/25 07:23:36;;;;;;;;;;;22.20;97.30;;;;;;5032366;28;19913;-70
2021/05/25 07:26:02;;;;;;;;;;;21.80;93.40;;;;;;5032229;28;20011;-70
2021/05/25 07:28:28;;;;;;;;;;;21.00;90.20;;;;;;5033540;28;19967;-70
2021/05/25 07:30:54;;;;;;;;;;;21.50;90.40;;;;;;5031311;28;19922;-70
2021/05/25 07:33:19;;;;;;;;;;;21.90;88.70;;;;;;5030694;28;19920;-70
2021/05/25 07:35:45;;;;;;;;;;;23.30;92.50;;;;;;5030687;28;20330;-71
2021/05/25 07:38:11;;;;;;;;;;;23.90;91.70;;;;;;5033465;28;19909;-70
2021/05/25 07:40:40;;;;;;;;;;;24.20;90.30;;;;;;5030688;28;19909;-70
2021/05/25 07:43:05;;;;;;;;;;;24.80;90.00;;;;;;5029193;28;20329;-71
2021/05/25 07:45:31;;;;;;;;;;;24.50;82.50;;;;;;5030931;28;19940;-68
2021/05/25 07:47:56;;;;;;;;;;;24.30;76.90;;;;;;5029417;28;19909;-68
2021/05/25 07:50:22;;;;;;;;;;;23.70;67.10;;;;;;5030603;28;20309;-70
2021/05/25 07:52:48;;;;;;;;;;;22.20;55.10;;;;;;5031999;28;19924;-70
2021/05/25 07:55:14;;;;;;;;;;;21.60;50.80;;;;;;5032152;28;20429;-70
2021/05/25 07:57:40;;;;;;;;;;;21.50;49.10;;;;;;5031840;28;19913;-70
2021/05/25 08:00:06;;;;;;;;;;;21.60;47.40;;;;;;5030321;28;19913;-70
2021/05/25 08:02:32;;;;;;;;;;;21.40;44.60;;;;;;5029670;28;19909;-70
2021/05/25 08:04:57;;;;;;;;;;;21.30;43.70;;;;;;5028958;28;19913;-70
2021/05/25 08:07:23;;;;;;;;;;;21.50;42.40;;;;;;5030257;28;20007;-71
2021/05/25 08:09:48;;;;;;;;;;;21.00;39.50;;;;;;5030151;28;19917;-70
2021/05/25 08:12:14;;;;;;;;;;;20.90;38.10;;;;;;5031225;28;19967;-70
2021/05/25 08:14:40;;;;;;;;;;;20.90;37.60;;;;;;5031437;28;19909;-70
2021/05/25 08:17:16;;;;;;;;;;;21.30;36.90;;;;;;5030336;28;19921;-70
2021/05/25 08:19:43;;;;;;;;;;;21.60;37.40;;;;;;5030074;28;19913;-70
2021/05/25 08:22:09;;;;;;;;;;;22.20;36.80;;;;;;5030525;28;19913;-70
2021/05/25 08:24:34;;;;;;;;;;;23.10;38.60;;;;;;5031078;28;19917;-70
2021/05/25 08:27:00;;;;;;;;;;;23.40;37.20;;;;;;5030308;28;19983;-70
2021/05/25 08:29:25;;;;;;;;;;;23.10;34.90;;;;;;5028661;28;20004;-71
2021/05/25 08:31:51;;;;;;;;;;;22.30;30.60;;;;;;5030290;28;19913;-70
2021/05/25 08:34:16;;;;;;;;;;;21.00;24.20;;;;;;5029944;28;20352;-70
2021/05/25 08:36:42;;;;;;;;;;;20.10;20.20;;;;;;5029928;28;20008;-70
2021/05/25 08:39:07;;;;;;;;;;;19.70;19.40;;;;;;5031399;28;20515;-70
2021/05/25 08:41:34;;;;;;;;;;;19.00;16.10;;;;;;5031062;28;20196;-70
2021/05/25 08:44:00;;;;;;;;;;;18.20;13.60;;;;;;5032003;28;19970;-70
2021/05/25 08:46:25;;;;;;;;;;;18.00;13.50;;;;;;5030681;28;19957;-71
2021/05/25 08:48:52;;;;;;;;;;;19.50;19.40;;;;;;5027060;28;19909;-70
2021/05/25 08:51:17;;;;;;;;;;;21.40;23.10;;;;;;5028747;28;19916;-69
2021/05/25 08:53:43;;;;;;;;;;;21.10;21.00;;;;;;5029681;28;20122;-70
2021/05/25 08:56:08;;;;;;;;;;;22.20;24.40;;;;;;5029632;28;20517;-70
2021/05/25 08:58:34;;;;;;;;;;;23.20;26.60;;;;;;5030597;28;19964;-70
2021/05/25 09:00:59;;;;;;;;;;;23.10;25.10;;;;;;5028717;28;20059;-70
2021/05/25 09:03:25;;;;;;;;;;;23.00;23.50;;;;;;5028370;28;19909;-70
2021/05/25 09:06:09;;;;;;;;;;;22.40;20.60;;;;;;5028809;28;19944;-70
2021/05/25 09:08:35;;;;;;;;;;;23.10;22.30;;;;;;5027455;28;19948;-70
2021/05/25 09:11:04;;;;;;;;;;;22.90;19.80;;;;;;5029034;28;20380;-70
2021/05/25 09:13:30;;;;;;;;;;;22.90;18.40;;;;;;5028893;28;19920;-70
2021/05/25 09:15:58;;;;;;;;;;;22.70;16.80;;;;;;5029152;28;19909;-69
2021/05/25 09:18:24;;;;;;;;;;;22.10;13.50;;;;;;5028639;28;19913;-69
2021/05/25 09:20:52;;;;;;;;;;;20.60;6.80;;;;;;5027606;28;20334;-69
2021/05/25 09:23:19;;;;;;;;;;;19.50;2.40;;;;;;5025610;28;19909;-69
2021/05/25 09:25:52;;;;;;;;;;;18.80;1.00;;;;;;5028743;28;20058;-69
2021/05/25 09:28:18;;;;;;;;;;;18.50;1.00;;;;;;5028928;28;19996;-70
2021/05/25 09:30:46;;;;;;;;;;;18.30;1.00;;;;;;5028181;28;19913;-70
2021/05/25 09:33:12;;;;;;;;;;;18.10;1.00;;;;;;5029574;28;19913;-71
2021/05/25 09:35:40;;;;;;;;;;;18.00;1.00;;;;;;5028605;28;20332;-70
2021/05/25 09:38:09;;;;;;;;;;;17.90;1.00;;;;;;5029959;28;19998;-70
2021/05/25 09:40:36;;;;;;;;;;;17.50;1.00;;;;;;5029695;28;20011;-70
2021/05/25 09:43:12;;;;;;;;;;;17.10;1.00;;;;;;5030840;28;19947;-70
2021/05/25 09:45:53;;;;;;;;;;;16.80;1.00;;;;;;5029523;28;19921;-70
2021/05/25 09:48:18;;;;;;;;;;;16.30;1.00;;;;;;5028233;28;19920;-70
2021/05/25 09:50:44;;;;;;;;;;;15.90;1.00;;;;;;5028980;28;19913;-69
2021/05/25 09:53:20;;;;;;;;;;;15.60;1.00;;;;;;5031032;28;19913;-69
2021/05/25 09:55:56;;;;;;;;;;;15.60;1.00;;;;;;5029817;28;19940;-71
2021/05/25 09:58:25;;;;;;;;;;;15.80;1.00;;;;;;5028901;28;20007;-69
2021/05/25 10:00:51;;;;;;;;;;;15.80;1.00;;;;;;5021760;28;20365;-70
2021/05/25 10:03:21;;;;;;;;;;;15.90;1.00;;;;;;5027079;28;19928;-71
2021/05/25 10:05:50;;;;;;;;;;;15.80;1.00;;;;;;5027497;28;19956;-69
2021/05/25 10:08:17;;;;;;;;;;;15.60;1.00;;;;;;5028355;28;20135;-69
2021/05/25 10:10:43;;;;;;;;;;;15.40;1.00;;;;;;5027655;28;19984;-70
2021/05/25 10:13:09;;;;;;;;;;;15.00;1.00;;;;;;5028030;28;19997;-71
2021/05/25 10:15:35;;;;;;;;;;;14.70;1.00;;;;;;5028570;28;19913;-69
2021/05/25 10:20:30;;;;;;;;;;;14.50;1.00;;;;;;5028075;28;19963;-70
2021/05/25 10:22:56;;;;;;;;;;;14.40;1.00;;;;;;5031504;28;19928;-70
2021/05/25 10:25:22;;;;;;;;;;;14.50;1.00;;;;;;5030575;28;19971;-71
2021/05/25 10:27:47;;;;;;;;;;;14.60;1.00;;;;;;5031431;28;19920;-71
2021/05/25 10:30:22;;;;;;;;;;;14.70;1.00;;;;;;5029622;28;20331;-70
2021/05/25 10:32:48;;;;;;;;;;;14.90;1.00;;;;;;5029454;28;20290;-70
2021/05/25 10:35:18;;;;;;;;;;;15.00;1.00;;;;;;5027688;28;19909;-69
2021/05/25 10:38:02;;;;;;;;;;;15.10;1.00;;;;;;5028290;28;20015;-70
2021/05/25 10:40:36;;;;;;;;;;;15.30;1.00;;;;;;5027914;28;20012;-69
2021/05/25 10:43:20;;;;;;;;;;;15.50;1.00;;;;;;5027985;28;19952;-70
2021/05/25 10:45:46;;;;;;;;;;;15.60;1.00;;;;;;5027412;28;20305;-71
2021/05/25 10:48:11;;;;;;;;;;;16.10;1.00;;;;;;5029260;28;19909;-70
2021/05/25 10:50:47;;;;;;;;;;;16.30;1.00;;;;;;5033125;28;19987;-70
2021/05/25 10:53:22;;;;;;;;;;;16.10;1.00;;;;;;5034250;28;19945;-70
2021/05/25 10:55:48;;;;;;;;;;;15.70;1.00;;;;;;5032998;28;19913;-71
2021/05/25 10:58:34;;;;;;;;;;;15.50;1.00;;;;;;5034714;28;19924;-70
2021/05/25 11:01:00;;;;;;;;;;;15.30;1.00;;;;;;5033229;28;19963;-71
2021/05/25 11:03:26;;;;;;;;;;;15.60;1.00;;;;;;5034222;28;19917;-70
2021/05/25 11:08:20;;;;;;;;;;;16.60;4.10;;;;;;5008557;28;19933;-76
2021/05/25 11:10:54;;;;;;;;;;;16.80;4.50;;;;;;5009081;28;19914;-76
2021/05/25 11:13:25;;;;;;;;;;;16.60;3.50;;;;;;5011786;28;19920;-76
2021/05/25 11:16:11;;;;;;;;;;;16.10;1.00;;;;;;4992887;28;19914;-76
2021/05/25 11:18:58;;;;;;;;;;;15.70;1.00;;;;;;5010901;28;19983;-76
2021/05/25 11:24:37;;;;;;;;;;;14.90;1.00;;;;;;5011791;28;19910;-75
2021/05/25 11:27:06;;;;;;;;;;;14.80;1.00;;;;;;5010840;28;19925;-74
2021/05/25 11:29:36;;;;;;;;;;;14.80;1.00;;;;;;5010128;28;20358;-75
2021/05/25 11:32:15;;;;;;;;;;;14.80;1.00;;;;;;4993984;28;19918;-74
2021/05/25 11:34:41;;;;;;;;;;;14.70;1.00;;;;;;5013084;28;20004;-74
2021/05/25 11:37:07;;;;;;;;;;;14.70;1.00;;;;;;5012895;28;19914;-75
2021/05/25 11:39:34;;;;;;;;;;;14.80;1.00;;;;;;5012986;28;20266;-75
2021/05/25 11:42:00;;;;;;;;;;;14.90;1.00;;;;;;5012718;28;19956;-75
2021/05/25 11:44:29;;;;;;;;;;;15.20;1.00;;;;;;5012588;28;19968;-75
2021/05/25 11:46:54;;;;;;;;;;;15.90;1.00;;;;;;5012422;28;19924;-75
2021/05/25 11:49:20;;;;;;;;;;;16.50;1.00;;;;;;5012583;28;20358;-74
2021/05/25 11:51:46;;;;;;;;;;;16.80;1.00;;;;;;5012460;28;19951;-75
2021/05/25 11:54:16;;;;;;;;;;;17.20;1.10;;;;;;5012291;28;20386;-75
2021/05/25 11:56:43;;;;;;;;;;;17.50;1.10;;;;;;5012351;28;19918;-75
2021/05/25 11:59:16;;;;;;;;;;;17.60;1.00;;;;;;5012156;28;19928;-75
2021/05/25 12:01:52;;;;;;;;;;;17.70;1.00;;;;;;5010261;28;19913;-74
2021/05/25 12:04:18;;;;;;;;;;;17.80;1.00;;;;;;5011822;28;19917;-75
2021/05/25 12:06:45;;;;;;;;;;;18.00;1.00;;;;;;5011597;28;19952;-74
2021/05/25 12:09:12;;;;;;;;;;;18.00;1.00;;;;;;5011743;28;19937;-75
2021/05/25 12:11:41;;;;;;;;;;;17.70;1.00;;;;;;5011800;28;20031;-74
2021/05/25 12:14:07;;;;;;;;;;;17.20;1.00;;;;;;5012124;28;19940;-75
2021/05/25 12:16:33;;;;;;;;;;;16.60;1.00;;;;;;5011678;28;19913;-74
2021/05/25 12:18:59;;;;;;;;;;;16.30;1.00;;;;;;5011719;28;20428;-75
2021/05/25 12:21:24;;;;;;;;;;;16.40;1.00;;;;;;5011175;28;20004;-74
2021/05/25 12:23:50;;;;;;;;;;;16.70;1.00;;;;;;5011695;28;19960;-74
2021/05/25 12:26:16;;;;;;;;;;;16.70;1.00;;;;;;5011718;28;20048;-75
2021/05/25 12:28:46;;;;;;;;;;;16.90;1.00;;;;;;5011744;28;20052;-73
2021/05/25 12:31:12;;;;;;;;;;;17.00;1.00;;;;;;5008125;28;20740;-74
2021/05/25 12:33:39;;;;;;;;;;;17.00;1.00;;;;;;5008396;28;19914;-74
2021/05/25 12:36:14;;;;;;;;;;;16.80;1.00;;;;;;5008187;28;19924;-74
2021/05/25 12:38:39;;;;;;;;;;;16.60;1.00;;;;;;5006223;28;19917;-74
2021/05/25 12:41:05;;;;;;;;;;;16.40;1.00;;;;;;5008641;28;19967;-73
2021/05/25 12:43:32;;;;;;;;;;;16.30;1.00;;;;;;5009087;28;19920;-74
2021/05/25 12:46:08;;;;;;;;;;;16.70;1.00;;;;;;5008197;28;20076;-74
2021/05/25 12:48:35;;;;;;;;;;;17.00;1.00;;;;;;5008183;28;20572;-74
2021/05/25 12:51:00;;;;;;;;;;;17.00;1.00;;;;;;5007575;28;19919;-74
2021/05/25 12:53:26;;;;;;;;;;;17.00;1.00;;;;;;5008476;28;20489;-74
2021/05/25 12:55:51;;;;;;;;;;;17.20;1.00;;;;;;5008486;28;19929;-74
2021/05/25 12:58:34;;;;;;;;;;;17.10;1.00;;;;;;5008488;28;20004;-73
2021/05/25 13:01:00;;;;;;;;;;;17.40;1.00;;;;;;5008244;28;20354;-73
2021/05/25 13:03:26;;;;;;;;;;;17.70;1.00;;;;;;5007286;28;19956;-73
2021/05/25 13:06:08;;;;;;;;;;;17.70;1.00;;;;;;5007510;28;19914;-75
2021/05/25 13:08:35;;;;;;;;;;;17.90;1.00;;;;;;5009903;28;19974;-75
2021/05/25 13:11:10;;;;;;;;;;;17.80;1.00;;;;;;5008798;28;20385;-74
2021/05/25 13:13:41;;;;;;;;;;;17.80;1.00;;;;;;4991774;28;19937;-75
2021/05/25 13:16:17;;;;;;;;;;;17.80;1.00;;;;;;5009713;28;19923;-74
2021/05/25 13:18:45;;;;;;;;;;;17.70;1.00;;;;;;5008660;28;20413;-74
2021/05/25 13:21:13;;;;;;;;;;;17.90;1.00;;;;;;5008309;28;19988;-73
2021/05/25 13:23:39;;;;;;;;;;;18.00;1.00;;;;;;5009516;28;19920;-74
2021/05/25 13:26:18;;;;;;;;;;;17.90;1.00;;;;;;5009682;28;19909;-73
2021/05/25 13:28:54;;;;;;;;;;;17.70;1.00;;;;;;5009702;28;19913;-74
2021/05/25 13:31:23;;;;;;;;;;;17.50;1.00;;;;;;5008605;28;19917;-74
2021/05/25 13:33:49;;;;;;;;;;;17.40;1.00;;;;;;5008386;28;19917;-73
2021/05/25 13:36:16;;;;;;;;;;;17.30;1.00;;;;;;5008916;28;20004;-74
2021/05/25 13:38:43;;;;;;;;;;;17.40;1.00;;;;;;5009735;28;19964;-75
2021/05/25 13:41:08;;;;;;;;;;;17.70;1.00;;;;;;5008236;28;19910;-73
2021/05/25 13:43:34;;;;;;;;;;;17.70;1.00;;;;;;5008987;28;20285;-75
2021/05/25 13:46:03;;;;;;;;;;;17.60;1.00;;;;;;5005579;28;20004;-74
2021/05/25 13:48:28;;;;;;;;;;;17.50;1.00;;;;;;5007133;28;19917;-73
2021/05/25 13:50:54;;;;;;;;;;;17.40;1.00;;;;;;5006013;28;19913;-74
2021/05/25 13:53:19;;;;;;;;;;;17.60;1.00;;;;;;5008099;28;19976;-75
2021/05/25 13:55:45;;;;;;;;;;;17.60;1.00;;;;;;4989783;28;20476;-74
2021/05/25 13:58:10;;;;;;;;;;;17.60;1.00;;;;;;5006984;28;20247;-74
2021/05/25 14:00:58;;;;;;;;;;;17.70;1.00;;;;;;5007653;28;20342;-74
2021/05/25 14:03:23;;;;;;;;;;;17.60;1.00;;;;;;5006497;28;19916;-74
2021/05/25 14:05:50;;;;;;;;;;;17.60;1.00;;;;;;5004338;28;20297;-73
2021/05/25 14:08:16;;;;;;;;;;;17.70;1.00;;;;;;4999897;28;19921;-75
2021/05/25 14:10:41;;;;;;;;;;;17.80;1.00;;;;;;5007836;28;20405;-73
2021/05/25 14:13:08;;;;;;;;;;;17.70;1.00;;;;;;5008347;28;19917;-73
2021/05/25 14:15:37;;;;;;;;;;;17.70;1.00;;;;;;5004548;28;19936;-74
2021/05/25 14:18:02;;;;;;;;;;;17.50;1.00;;;;;;5007509;28;20016;-74
2021/05/25 14:20:28;;;;;;;;;;;17.20;1.00;;;;;;5005185;28;20000;-75
2021/05/25 14:22:54;;;;;;;;;;;16.80;1.00;;;;;;5008437;28;19964;-75
2021/05/25 14:25:20;;;;;;;;;;;16.60;1.00;;;;;;5008253;28;20364;-73
2021/05/25 14:27:45;;;;;;;;;;;16.60;1.00;;;;;;5008698;28;20095;-73
2021/05/25 14:30:11;;;;;;;;;;;16.70;1.00;;;;;;5006793;28;20223;-74
2021/05/25 14:32:37;;;;;;;;;;;16.70;1.00;;;;;;5008018;28;19953;-73
2021/05/25 14:35:02;;;;;;;;;;;16.60;1.00;;;;;;5007148;28;20051;-73
2021/05/25 14:37:28;;;;;;;;;;;16.40;1.00;;;;;;5008131;28;19924;-73